createdAt,value
2017-10-15T00:01:40.970Z,14.10
2017-10-15T00:04:08.457Z,14.10
2017-10-15T00:06:36.687Z,14.10
2017-10-15T00:09:04.167Z,14.10
2017-10-15T00:11:31.635Z,14.20
2017-10-15T00:13:59.874Z,14.10
2017-10-15T00:16:27.396Z,14.10
2017-10-15T00:18:54.869Z,14.10
2017-10-15T00:21:22.327Z,14.10
2017-10-15T00:23:49.796Z,14.10
2017-10-15T00:26:17.263Z,14.00
2017-10-15T00:28:44.747Z,14.00
2017-10-15T00:31:12.207Z,14.00
2017-10-15T00:33:39.676Z,13.90
2017-10-15T00:36:07.915Z,13.90
2017-10-15T00:38:35.395Z,13.90
2017-10-15T00:41:02.859Z,13.90
2017-10-15T00:43:30.332Z,13.90
2017-10-15T00:45:58.576Z,13.80
2017-10-15T00:48:26.051Z,13.70
2017-10-15T00:50:53.528Z,13.80
2017-10-15T00:53:21.764Z,13.80
2017-10-15T00:55:49.247Z,13.70
2017-10-15T00:58:16.711Z,13.80
2017-10-15T01:00:44.199Z,13.80
2017-10-15T01:03:11.685Z,13.80
2017-10-15T01:05:39.155Z,13.80
2017-10-15T01:08:06.621Z,13.80
2017-10-15T01:10:34.114Z,13.80
2017-10-15T01:13:02.349Z,13.70
2017-10-15T01:15:29.820Z,13.70
2017-10-15T01:17:57.348Z,13.60
2017-10-15T01:20:24.820Z,13.60
2017-10-15T01:22:52.282Z,13.60
2017-10-15T01:25:19.747Z,13.60
2017-10-15T01:27:47.220Z,13.60
2017-10-15T01:30:14.684Z,13.60
2017-10-15T01:32:42.161Z,13.50
2017-10-15T01:35:10.391Z,13.50
2017-10-15T01:37:37.869Z,13.50
2017-10-15T01:40:05.358Z,13.50
2017-10-15T01:42:33.596Z,13.40
2017-10-15T01:45:01.063Z,13.40
2017-10-15T01:47:28.542Z,13.50
2017-10-15T01:49:56.773Z,13.50
2017-10-15T01:52:24.247Z,13.50
2017-10-15T01:54:51.747Z,13.50
2017-10-15T01:57:19.985Z,13.40
2017-10-15T01:59:47.452Z,13.40
2017-10-15T02:02:14.948Z,13.40
2017-10-15T02:04:42.415Z,13.30
2017-10-15T02:07:09.888Z,13.20
2017-10-15T02:09:37.380Z,13.10
2017-10-15T02:12:04.843Z,13.00
2017-10-15T02:14:32.323Z,13.00
2017-10-15T02:17:00.556Z,13.10
2017-10-15T02:19:28.027Z,13.10
2017-10-15T02:21:55.505Z,13.10
2017-10-15T02:24:23.745Z,13.20
2017-10-15T02:26:51.208Z,13.20
2017-10-15T02:29:18.681Z,13.20
2017-10-15T02:31:46.147Z,13.20
2017-10-15T02:34:13.621Z,13.20
2017-10-15T02:36:41.097Z,13.20
2017-10-15T02:39:23.340Z,13.20
2017-10-15T02:41:50.799Z,13.20
2017-10-15T02:44:18.280Z,13.20
2017-10-15T02:46:46.519Z,13.10
2017-10-15T02:49:14.013Z,13.10
2017-10-15T02:51:42.262Z,13.20
2017-10-15T02:54:09.726Z,13.10
2017-10-15T02:56:37.187Z,13.10
2017-10-15T02:59:04.668Z,13.10
2017-10-15T03:01:32.895Z,13.10
2017-10-15T03:04:00.376Z,13.10
2017-10-15T03:06:28.071Z,13.10
2017-10-15T03:08:55.577Z,13.00
2017-10-15T03:11:23.039Z,13.00
2017-10-15T03:13:50.500Z,13.00
2017-10-15T03:16:17.967Z,13.00
2017-10-15T03:18:45.444Z,13.00
2017-10-15T03:21:12.965Z,13.00
2017-10-15T03:23:40.438Z,13.00
2017-10-15T03:26:07.912Z,13.10
2017-10-15T03:28:35.395Z,13.10
2017-10-15T03:31:03.631Z,13.10
2017-10-15T03:33:31.912Z,13.00
2017-10-15T03:35:59.387Z,13.10
2017-10-15T03:38:27.632Z,13.10
2017-10-15T03:40:55.111Z,13.10
2017-10-15T03:43:22.593Z,13.10
2017-10-15T03:45:50.829Z,13.10
2017-10-15T03:48:18.306Z,13.00
2017-10-15T03:50:45.805Z,13.10
2017-10-15T03:53:13.295Z,13.10
2017-10-15T03:55:40.757Z,13.10
2017-10-15T03:58:08.219Z,13.00
2017-10-15T04:00:35.692Z,13.00
2017-10-15T04:03:03.163Z,12.80
2017-10-15T04:05:30.639Z,12.70
2017-10-15T04:07:58.881Z,12.40
2017-10-15T04:10:26.335Z,12.40
2017-10-15T04:12:53.837Z,12.40
2017-10-15T04:15:22.088Z,12.50
2017-10-15T04:17:49.569Z,12.50
2017-10-15T04:20:17.804Z,12.60
2017-10-15T04:22:45.280Z,12.60
2017-10-15T04:25:12.753Z,12.60
2017-10-15T04:27:40.996Z,12.50
2017-10-15T04:30:08.458Z,12.50
2017-10-15T04:32:35.949Z,12.50
2017-10-15T04:35:04.221Z,12.30
2017-10-15T04:37:31.697Z,12.30
2017-10-15T04:39:59.928Z,12.40
2017-10-15T04:42:27.397Z,12.40
2017-10-15T04:44:54.864Z,12.50
2017-10-15T04:47:23.104Z,12.50
2017-10-15T04:49:51.349Z,12.50
2017-10-15T04:52:18.827Z,12.40
2017-10-15T04:54:46.325Z,12.50
2017-10-15T04:57:13.788Z,12.50
2017-10-15T04:59:41.264Z,12.50
2017-10-15T05:02:08.760Z,12.50
2017-10-15T05:04:36.234Z,12.50
2017-10-15T05:07:03.698Z,12.50
2017-10-15T05:09:31.168Z,12.50
2017-10-15T05:11:58.637Z,12.50
2017-10-15T05:14:26.105Z,12.50
2017-10-15T05:16:54.341Z,12.40
2017-10-15T05:19:22.628Z,12.40
2017-10-15T05:21:50.105Z,12.40
2017-10-15T05:24:17.576Z,12.40
2017-10-15T05:26:45.808Z,12.30
2017-10-15T05:29:13.279Z,12.30
2017-10-15T05:31:40.750Z,12.30
2017-10-15T05:34:08.362Z,12.20
2017-10-15T05:36:35.828Z,12.10
2017-10-15T05:39:03.304Z,12.10
2017-10-15T05:41:30.769Z,12.20
2017-10-15T05:43:58.226Z,12.20
2017-10-15T05:46:25.701Z,12.20
2017-10-15T05:48:53.172Z,12.00
2017-10-15T05:51:20.645Z,11.80
2017-10-15T05:53:48.883Z,11.70
2017-10-15T05:56:16.353Z,11.60
2017-10-15T05:58:43.810Z,11.60
2017-10-15T06:01:11.283Z,11.70
2017-10-15T06:03:39.521Z,11.70
2017-10-15T06:06:07.002Z,11.70
2017-10-15T06:08:34.492Z,11.80
2017-10-15T06:11:02.719Z,11.90
2017-10-15T06:13:30.211Z,11.90
2017-10-15T06:15:57.680Z,12.00
2017-10-15T06:18:25.903Z,12.00
2017-10-15T06:20:54.151Z,12.10
2017-10-15T06:23:21.620Z,12.00
2017-10-15T06:25:49.093Z,12.10
2017-10-15T06:28:16.563Z,12.10
2017-10-15T06:30:44.034Z,12.10
2017-10-15T06:33:11.507Z,12.00
2017-10-15T06:35:38.980Z,12.00
2017-10-15T06:38:07.237Z,12.10
2017-10-15T06:40:34.721Z,12.10
2017-10-15T06:43:03.074Z,12.10
2017-10-15T06:45:30.539Z,12.30
2017-10-15T06:47:58.788Z,12.20
2017-10-15T06:50:26.252Z,12.20
2017-10-15T06:52:53.724Z,12.20
2017-10-15T06:55:21.447Z,12.20
2017-10-15T06:57:48.942Z,12.20
2017-10-15T07:00:16.411Z,12.30
2017-10-15T07:02:43.896Z,12.30
2017-10-15T07:05:12.137Z,12.30
2017-10-15T07:07:39.612Z,12.30
2017-10-15T07:10:07.835Z,12.40
2017-10-15T07:12:35.311Z,12.40
2017-10-15T07:15:02.781Z,12.40
2017-10-15T07:17:30.251Z,12.50
2017-10-15T07:19:57.731Z,12.50
2017-10-15T07:22:25.975Z,12.60
2017-10-15T07:24:53.456Z,12.60
2017-10-15T07:27:21.705Z,12.70
2017-10-15T07:29:49.199Z,12.70
2017-10-15T07:32:17.477Z,12.80
2017-10-15T07:34:45.718Z,12.90
2017-10-15T07:37:13.968Z,13.00
2017-10-15T07:39:41.436Z,12.90
2017-10-15T07:42:08.916Z,13.00
2017-10-15T07:44:36.394Z,13.20
2017-10-15T07:47:04.583Z,13.30
2017-10-15T07:49:32.825Z,13.50
2017-10-15T07:52:00.311Z,13.50
2017-10-15T07:54:28.560Z,13.80
2017-10-15T07:56:56.073Z,13.80
2017-10-15T07:59:23.562Z,14.00
2017-10-15T08:01:51.031Z,14.20
2017-10-15T08:04:18.511Z,14.40
2017-10-15T08:06:45.993Z,14.50
2017-10-15T08:09:14.255Z,14.80
2017-10-15T08:11:42.481Z,14.80
2017-10-15T08:14:09.977Z,14.80
2017-10-15T08:16:37.452Z,14.90
2017-10-15T08:19:05.712Z,15.40
2017-10-15T08:21:33.182Z,15.40
2017-10-15T08:24:01.429Z,15.70
2017-10-15T08:26:28.918Z,15.60
2017-10-15T08:28:56.388Z,15.80
2017-10-15T08:31:24.623Z,16.10
2017-10-15T08:33:52.108Z,16.10
2017-10-15T08:36:19.591Z,16.20
2017-10-15T08:38:47.100Z,16.30
2017-10-15T08:41:14.565Z,16.40
2017-10-15T08:43:42.048Z,16.50
2017-10-15T08:46:09.507Z,16.60
2017-10-15T08:48:37.003Z,16.70
2017-10-15T08:51:05.244Z,16.70
2017-10-15T08:53:32.716Z,16.80
2017-10-15T08:56:00.184Z,16.90
2017-10-15T08:58:28.428Z,17.10
2017-10-15T09:00:55.908Z,17.10
2017-10-15T09:03:23.378Z,17.20
2017-10-15T09:05:51.620Z,17.50
2017-10-15T09:08:19.088Z,17.50
2017-10-15T09:10:46.581Z,17.60
2017-10-15T09:13:14.817Z,17.90
2017-10-15T09:15:42.305Z,17.80
2017-10-15T09:18:09.763Z,18.00
2017-10-15T09:20:38.004Z,18.10
2017-10-15T09:23:05.476Z,18.10
2017-10-15T09:25:32.954Z,18.20
2017-10-15T09:28:00.421Z,18.30
2017-10-15T09:30:28.665Z,18.50
2017-10-15T09:32:56.160Z,18.50
2017-10-15T09:35:24.404Z,18.70
2017-10-15T09:37:51.876Z,18.70
2017-10-15T09:40:19.362Z,18.80
2017-10-15T09:42:47.608Z,19.10
2017-10-15T09:45:15.093Z,19.10
2017-10-15T09:47:43.332Z,19.40
2017-10-15T09:50:10.792Z,19.40
2017-10-15T09:52:39.028Z,19.70
2017-10-15T09:55:06.555Z,19.70
2017-10-15T09:57:34.800Z,20.00
2017-10-15T10:00:02.285Z,20.00
2017-10-15T10:02:30.647Z,20.40
2017-10-15T10:04:58.117Z,20.40
2017-10-15T10:07:25.592Z,20.60
2017-10-15T10:09:53.833Z,21.00
2017-10-15T10:12:21.293Z,20.90
2017-10-15T10:14:48.751Z,21.10
2017-10-15T10:17:16.232Z,21.30
2017-10-15T10:19:43.687Z,21.50
2017-10-15T10:22:11.151Z,21.60
2017-10-15T10:24:39.393Z,22.00
2017-10-15T10:27:06.876Z,22.00
2017-10-15T10:29:34.338Z,22.20
2017-10-15T10:32:01.815Z,22.40
2017-10-15T10:34:30.052Z,22.70
2017-10-15T10:36:57.520Z,22.60
2017-10-15T10:39:24.989Z,22.90
2017-10-15T10:41:52.462Z,23.00
2017-10-15T10:44:20.745Z,23.30
2017-10-15T10:46:48.985Z,23.50
2017-10-15T10:49:17.960Z,23.50
2017-10-15T10:51:45.432Z,23.60
2017-10-15T10:54:12.916Z,23.80
2017-10-15T10:56:40.409Z,23.90
2017-10-15T10:59:07.887Z,24.00
2017-10-15T11:01:35.759Z,24.10
2017-10-15T11:04:03.239Z,24.00
2017-10-15T11:06:30.712Z,24.00
2017-10-15T11:08:58.188Z,24.10
2017-10-15T11:11:26.466Z,24.20
2017-10-15T11:13:54.699Z,24.40
2017-10-15T11:16:22.932Z,24.60
2017-10-15T11:18:50.411Z,24.60
2017-10-15T11:21:17.885Z,24.60
2017-10-15T11:23:45.396Z,24.80
2017-10-15T11:26:13.787Z,24.80
2017-10-15T11:28:41.287Z,24.80
2017-10-15T11:31:08.748Z,24.80
2017-10-15T11:33:36.229Z,25.00
2017-10-15T11:36:03.683Z,25.10
2017-10-15T11:38:31.199Z,25.30
2017-10-15T11:40:58.665Z,25.40
2017-10-15T11:43:26.140Z,25.50
2017-10-15T11:45:53.607Z,25.50
2017-10-15T11:48:21.856Z,25.50
2017-10-15T11:50:49.325Z,25.50
2017-10-15T11:53:16.886Z,25.50
2017-10-15T11:55:44.374Z,25.50
2017-10-15T11:58:11.833Z,25.50
2017-10-15T12:00:39.308Z,25.70
2017-10-15T12:03:07.539Z,25.80
2017-10-15T12:05:35.029Z,25.80
2017-10-15T12:08:03.271Z,25.80
2017-10-15T12:10:30.754Z,25.80
2017-10-15T12:12:58.224Z,25.80
2017-10-15T12:15:25.743Z,25.60
2017-10-15T12:17:53.205Z,25.80
2017-10-15T12:20:20.730Z,26.00
2017-10-15T12:22:48.959Z,26.20
2017-10-15T12:25:16.432Z,26.20
2017-10-15T12:27:43.892Z,26.30
2017-10-15T12:30:11.354Z,26.20
2017-10-15T12:32:38.820Z,26.10
2017-10-15T12:35:06.309Z,26.10
2017-10-15T12:37:33.778Z,26.10
2017-10-15T12:40:01.251Z,26.00
2017-10-15T12:42:28.716Z,26.10
2017-10-15T12:44:56.248Z,26.20
2017-10-15T12:47:23.714Z,26.20
2017-10-15T12:49:51.176Z,26.10
2017-10-15T12:52:18.652Z,26.00
2017-10-15T12:54:46.107Z,25.90
2017-10-15T12:57:13.589Z,25.70
2017-10-15T12:59:41.065Z,25.60
2017-10-15T13:02:08.544Z,25.60
2017-10-15T13:04:36.016Z,25.60
2017-10-15T13:07:03.491Z,25.50
2017-10-15T13:09:30.986Z,25.40
2017-10-15T13:11:58.465Z,25.30
2017-10-15T13:14:26.710Z,25.40
2017-10-15T13:16:54.189Z,25.30
2017-10-15T13:19:21.661Z,25.30
2017-10-15T13:21:49.899Z,25.20
2017-10-15T13:24:17.369Z,25.20
2017-10-15T13:26:44.848Z,25.10
2017-10-15T13:29:12.313Z,25.10
2017-10-15T13:31:40.568Z,25.10
2017-10-15T13:34:08.043Z,25.00
2017-10-15T13:36:35.528Z,24.90
2017-10-15T13:39:03.002Z,24.90
2017-10-15T13:41:30.489Z,24.80
2017-10-15T13:43:58.728Z,24.50
2017-10-15T13:46:26.188Z,24.50
2017-10-15T13:48:53.664Z,24.50
2017-10-15T13:51:21.152Z,24.40
2017-10-15T13:53:48.629Z,24.30
2017-10-15T13:56:16.109Z,24.20
2017-10-15T13:58:44.343Z,24.00
2017-10-15T14:01:11.809Z,24.00
2017-10-15T14:03:39.281Z,24.00
2017-10-15T14:06:06.745Z,23.90
2017-10-15T14:08:34.993Z,23.80
2017-10-15T14:11:02.480Z,23.80
2017-10-15T14:13:29.947Z,23.70
2017-10-15T14:15:58.167Z,23.80
2017-10-15T14:18:25.665Z,23.70
2017-10-15T14:20:53.133Z,23.70
2017-10-15T14:23:20.604Z,23.70
2017-10-15T14:25:48.094Z,23.70
2017-10-15T14:28:16.336Z,23.60
2017-10-15T14:30:43.801Z,23.60
2017-10-15T14:33:11.272Z,23.50
2017-10-15T14:35:39.056Z,23.50
2017-10-15T14:38:07.292Z,23.30
2017-10-15T14:40:34.750Z,23.40
2017-10-15T14:43:02.248Z,23.30
2017-10-15T14:45:30.474Z,23.10
2017-10-15T14:47:57.952Z,23.10
2017-10-15T14:50:25.448Z,23.00
2017-10-15T14:52:52.919Z,23.00
2017-10-15T14:55:20.405Z,22.90
2017-10-15T14:57:48.069Z,22.90
2017-10-15T15:00:15.601Z,22.90
2017-10-15T15:02:43.064Z,22.80
2017-10-15T15:05:10.544Z,22.80
2017-10-15T15:07:38.012Z,22.70
2017-10-15T15:10:05.481Z,22.70
2017-10-15T15:12:33.817Z,22.70
2017-10-15T15:15:01.293Z,22.60
2017-10-15T15:17:28.784Z,22.60
2017-10-15T15:19:56.262Z,22.60
2017-10-15T15:22:24.497Z,22.50
2017-10-15T15:24:51.974Z,22.50
2017-10-15T15:27:19.441Z,22.50
2017-10-15T15:29:46.933Z,22.60
2017-10-15T15:32:14.414Z,22.50
2017-10-15T15:34:41.891Z,22.50
2017-10-15T15:37:09.371Z,22.40
2017-10-15T15:39:36.837Z,22.50
2017-10-15T15:42:04.308Z,22.50
2017-10-15T15:44:32.545Z,22.50
2017-10-15T15:47:00.015Z,22.50
2017-10-15T15:49:27.489Z,22.40
2017-10-15T15:51:54.960Z,22.20
2017-10-15T15:54:22.416Z,22.00
2017-10-15T15:56:50.698Z,21.60
2017-10-15T15:59:18.939Z,21.30
2017-10-15T16:01:46.408Z,21.30
2017-10-15T16:04:13.874Z,21.20
2017-10-15T16:06:41.339Z,21.10
2017-10-15T16:09:08.811Z,20.90
2017-10-15T16:11:37.956Z,20.50
2017-10-15T16:14:05.477Z,20.50
2017-10-15T16:16:33.729Z,20.00
2017-10-15T16:19:01.192Z,19.90
2017-10-15T16:21:28.665Z,19.80
2017-10-15T16:23:56.880Z,19.60
2017-10-15T16:26:24.361Z,19.60
2017-10-15T16:28:51.830Z,19.40
2017-10-15T16:31:19.314Z,19.50
2017-10-15T16:33:47.549Z,19.40
2017-10-15T16:36:15.016Z,19.40
2017-10-15T16:38:42.487Z,19.30
2017-10-15T16:41:10.037Z,19.00
2017-10-15T16:43:37.605Z,18.90
2017-10-15T16:46:05.065Z,18.80
2017-10-15T16:48:32.541Z,18.50
2017-10-15T16:51:00.777Z,18.10
2017-10-15T16:53:28.256Z,18.10
2017-10-15T16:55:55.729Z,17.90
2017-10-15T16:58:23.200Z,17.80
2017-10-15T17:00:51.441Z,17.90
2017-10-15T17:03:18.908Z,17.90
2017-10-15T17:05:46.387Z,17.80
2017-10-15T17:08:14.629Z,17.50
2017-10-15T17:10:42.087Z,17.50
2017-10-15T17:13:09.571Z,17.50
2017-10-15T17:15:37.046Z,17.50
2017-10-15T17:18:05.303Z,17.30
2017-10-15T17:20:32.758Z,17.30
2017-10-15T17:23:00.247Z,17.20
2017-10-15T17:25:28.823Z,17.10
2017-10-15T17:27:56.344Z,17.10
2017-10-15T17:30:23.817Z,17.10
2017-10-15T17:32:51.288Z,17.00
2017-10-15T17:35:19.537Z,17.00
2017-10-15T17:37:47.006Z,17.00
2017-10-15T17:40:14.504Z,17.00
2017-10-15T17:42:42.728Z,17.10
2017-10-15T17:45:10.204Z,17.00
2017-10-15T17:47:37.672Z,17.20
2017-10-15T17:50:05.161Z,17.40
2017-10-15T17:52:32.632Z,17.50
2017-10-15T17:55:00.101Z,17.70
2017-10-15T17:57:27.576Z,17.80
2017-10-15T17:59:55.818Z,18.00
2017-10-15T18:02:29.929Z,18.00
2017-10-15T18:04:57.437Z,18.10
2017-10-15T18:07:24.891Z,18.10
2017-10-15T18:09:52.367Z,18.20
2017-10-15T18:12:19.841Z,18.20
2017-10-15T18:14:48.086Z,18.30
2017-10-15T18:17:15.560Z,18.30
2017-10-15T18:19:43.027Z,18.40
2017-10-15T18:22:11.269Z,18.30
2017-10-15T18:24:38.745Z,18.30
2017-10-15T18:27:06.219Z,18.30
2017-10-15T18:29:34.464Z,18.20
2017-10-15T18:32:01.995Z,18.20
2017-10-15T18:34:29.465Z,18.20
2017-10-15T18:36:56.942Z,18.20
2017-10-15T18:39:24.406Z,18.10
2017-10-15T18:41:51.883Z,18.10
2017-10-15T18:44:19.360Z,18.10
2017-10-15T18:46:47.601Z,18.00
2017-10-15T18:49:15.060Z,17.90
2017-10-15T18:51:42.537Z,17.90
2017-10-15T18:54:10.046Z,17.80
2017-10-15T18:56:37.523Z,17.80
2017-10-15T18:59:04.996Z,17.80
2017-10-15T19:01:32.480Z,17.70
2017-10-15T19:04:00.711Z,17.40
2017-10-15T19:06:28.180Z,17.40
2017-10-15T19:08:55.661Z,17.40
2017-10-15T19:11:23.114Z,17.30
2017-10-15T19:13:50.590Z,17.30
2017-10-15T19:16:18.811Z,17.40
2017-10-15T19:18:46.293Z,17.40
2017-10-15T19:21:13.760Z,17.30
2017-10-15T19:23:41.236Z,17.20
2017-10-15T19:26:09.480Z,17.10
2017-10-15T19:28:36.952Z,17.10
2017-10-15T19:31:04.415Z,17.00
2017-10-15T19:33:31.884Z,16.90
2017-10-15T19:35:59.357Z,16.80
2017-10-15T19:38:27.605Z,16.60
2017-10-15T19:40:55.083Z,16.60
2017-10-15T19:43:23.328Z,16.50
2017-10-15T19:45:50.804Z,16.50
2017-10-15T19:48:18.267Z,16.20
2017-10-15T19:50:45.782Z,16.10
2017-10-15T19:53:13.253Z,16.00
2017-10-15T19:55:40.760Z,16.00
2017-10-15T19:58:08.996Z,16.10
2017-10-15T20:00:36.523Z,16.10
2017-10-15T20:03:03.983Z,16.20
2017-10-15T20:05:31.457Z,16.20
2017-10-15T20:07:58.975Z,16.20
2017-10-15T20:10:27.208Z,16.10
2017-10-15T20:12:54.670Z,16.10
2017-10-15T20:15:22.285Z,16.00
2017-10-15T20:17:50.798Z,16.10
2017-10-15T20:20:18.276Z,16.10
2017-10-15T20:22:45.824Z,16.10
2017-10-15T20:25:13.309Z,16.20
2017-10-15T20:27:40.784Z,16.30
2017-10-15T20:30:09.041Z,16.50
2017-10-15T20:32:36.528Z,16.50
2017-10-15T20:35:04.763Z,16.70
2017-10-15T20:37:32.237Z,16.70
2017-10-15T20:39:59.705Z,16.80
2017-10-15T20:42:27.944Z,17.10
2017-10-15T20:44:55.427Z,17.10
2017-10-15T20:47:22.902Z,17.30
2017-10-15T20:49:51.140Z,17.40
2017-10-15T20:52:18.616Z,17.40
2017-10-15T20:54:46.092Z,17.40
2017-10-15T20:57:14.328Z,17.40
2017-10-15T20:59:41.802Z,17.40
2017-10-15T21:02:09.280Z,17.40
2017-10-15T21:04:36.740Z,17.50
2017-10-15T21:07:04.208Z,17.50
2017-10-15T21:09:32.431Z,17.70
2017-10-15T21:11:59.908Z,17.70
2017-10-15T21:14:27.388Z,17.70
2017-10-15T21:16:54.858Z,17.80
2017-10-15T21:19:23.093Z,18.00
2017-10-15T21:21:50.575Z,18.00
2017-10-15T21:24:18.048Z,18.10
2017-10-15T21:26:46.320Z,18.10
2017-10-15T21:29:13.784Z,18.10
2017-10-15T21:31:42.024Z,18.20
2017-10-15T21:34:09.496Z,18.20
2017-10-15T21:36:37.150Z,18.30
2017-10-15T21:39:04.627Z,18.30
2017-10-15T21:41:32.089Z,18.30
2017-10-15T21:43:59.560Z,18.30
2017-10-15T21:46:27.787Z,18.30
2017-10-15T21:48:55.260Z,18.30
2017-10-15T21:51:22.732Z,18.40
2017-10-15T21:53:50.206Z,18.40
2017-10-15T21:56:17.678Z,18.40
2017-10-15T21:58:45.916Z,18.50
2017-10-15T22:01:13.416Z,18.40
2017-10-15T22:03:42.781Z,18.40
2017-10-15T22:06:10.269Z,18.40
2017-10-15T22:08:38.629Z,18.50
2017-10-15T22:11:06.899Z,18.50
2017-10-15T22:13:34.362Z,18.40
2017-10-15T22:16:01.829Z,18.50
2017-10-15T22:18:35.096Z,18.50
2017-10-15T22:21:19.383Z,18.40
2017-10-15T22:23:47.620Z,18.40
2017-10-15T22:26:15.111Z,18.40
2017-10-15T22:28:42.572Z,18.50
2017-10-15T22:31:10.034Z,18.50
2017-10-15T22:33:38.267Z,18.50
2017-10-15T22:36:05.731Z,18.40
2017-10-15T22:38:33.198Z,18.50
2017-10-15T22:41:00.678Z,18.50
2017-10-15T22:43:28.232Z,18.50
2017-10-15T22:45:55.712Z,18.50
2017-10-15T22:48:23.941Z,18.50
2017-10-15T22:50:51.411Z,18.50
2017-10-15T22:53:18.903Z,18.50
2017-10-15T22:55:47.139Z,18.50
2017-10-15T22:58:14.604Z,18.50
2017-10-15T23:00:42.073Z,18.50
2017-10-15T23:03:09.559Z,18.50
2017-10-15T23:05:37.799Z,18.60
2017-10-15T23:08:05.273Z,18.50
2017-10-15T23:10:32.750Z,18.60
2017-10-15T23:13:01.165Z,18.60
2017-10-15T23:15:28.636Z,18.60
2017-10-15T23:17:56.105Z,18.70
2017-10-15T23:20:23.574Z,18.70
2017-10-15T23:22:51.052Z,18.80
2017-10-15T23:25:18.523Z,18.70
2017-10-15T23:27:46.768Z,18.70
2017-10-15T23:30:14.241Z,18.70
2017-10-15T23:32:41.708Z,18.70
2017-10-15T23:35:09.940Z,18.70
2017-10-15T23:37:37.420Z,18.70
2017-10-15T23:40:04.887Z,18.70
2017-10-15T23:42:32.360Z,18.70
2017-10-15T23:45:00.596Z,18.60
2017-10-15T23:47:28.080Z,18.60
2017-10-15T23:49:55.563Z,18.60
2017-10-15T23:52:23.800Z,18.40
2017-10-15T23:54:51.287Z,18.40
2017-10-15T23:57:19.552Z,18.40
2017-10-15T23:59:47.019Z,18.30
